CheckWX is a tool to help pilots better visualize weather data.  It is not intended as a substitute for an official pre-flight weather briefing.

04:52:11 UTC

KROC METAR
Greater Rochester International Airport
Rochester, New York, USA
Current

47 mins ago

KROC 070405Z 29004KT 9SM -SN SCT027 OVC055 M03/M06 A3021 RMK AO2 P0000 T10281056 $
Observed
Dec-7 @ 04:05 UTC
Wind
  • 290° at 4 KTS
Visibility
9 SM
Flight Rules
VFR
Conditions
Light Snow
Cloud Levels
  • Scattered at 2,700' AGL
  • Overcast at 5,500' AGL
Temperature
-3°C / 27°F
Dewpoint
-6°C / 21°F
Humidity
80%
Altimeter
30.21" Hg
Pressure
1023.02 hPa
Current Rain
0.01"
Previous

58 mins ago

KROC 070354Z 25004KT 9SM -SN OVC027 M03/M06 A3021 RMK AO2 SLP240 P0000 T10331056 $
Observed
Dec-7 @ 03:54 UTC
Wind
  • 250° at 4 KTS
Visibility
9 SM
Flight Rules
MVFR
Conditions
Light Snow
Cloud Levels
  • Overcast at 2,700' AGL
Temperature
-3°C / 27°F
Dewpoint
-6°C / 21°F
Humidity
80%
Altimeter
30.21" Hg
Pressure
1023.02 hPa
Current Rain
0.01"
Previous

2 hours ago

KROC 070320Z 26005KT 9SM -SN BKN027 BKN035 OVC042 M03/M06 A3020 RMK AO2 P0000 T10331056 $
Observed
Dec-7 @ 03:20 UTC
Wind
  • 260° at 5 KTS
Visibility
9 SM
Flight Rules
MVFR
Conditions
Light Snow
Cloud Levels
  • Broken at 2,700' AGL
  • Broken at 3,500' AGL
  • Overcast at 4,200' AGL
Temperature
-3°C / 27°F
Dewpoint
-6°C / 21°F
Humidity
80%
Altimeter
30.2" Hg
Pressure
1022.72 hPa
Current Rain
0.01"